Portada
METAR-TAF:

METAR-TAF

Aeropuertos :

Islamabad, Pakistán

Aeropuerto Internacional Benazir Bhutto

latitud: 33-37N, longitud: 073-06E, altitud: 507 m

Observación

El informe se hizo hace 34 minutos, a las 17:00 UTC
Viento 4 kt del norte
Temperatura 13°C
Humedad 67%
Presión 1019 hPa
Visibilidad: 4000 m
calima

METAR: OPRN 191700Z 36004KT 4000 HZ NSC 13/07 Q1019.5/30.10

Hora: 22:34 (17:34 UTC)

Pronóstico

El informe se hizo hace 14 horas y 4 minutos, a las 03:30 UTC
Pronóstico válido del 19 a las 06 UTC al 20 a las 12 UTC
Viento 10 kt del suroeste
Visibilidad: 4000 m
calima
Evolucionando progresivamente
del 20 a las 02 UTC al 20 a las 04 UTC
Viento 10 kt del noreste
Visibilidad: 3000 m
calima

TAF: OPRN 190330Z 1906/2012 23010KT 4000 HZ NSC BECMG 2002/2004 05010KT 3000 HZ NSC

Observaciones y pronósticos meteorológicos de más de 4000 aeropuertos (mensajes METAR y TAF).

Los puntos amarillos y rojos representan las estaciones disponibles.

Ponga el ratón en el punto deseado para ver el nombre de la estación.

Haga clic para ver las observaciones y los pronósticos meteorológicos.

Para cambiar el mapa : haga clic en los botones verdes con una cruz de color negro para hacer un zoom, en el botón verde con un guión para alejar o en las flechas verdes para mapas adyacentes.


METAR-TAF: